Jefferson, SD (57038)

6:38 AM CDT on May 23, 2017 (GMT -0500)
Wynstone | | Change Station
Active Advisory: Flood Warning

Elev 1089 ft 42.54 °N, 96.56 °W | Updated 55 seconds ago

Mostly Cloudy
Mostly Cloudy
47.5 °F
Feels Like 48 °F
N
3.0
Wind Variable Wind from WNW
Gusts 4.0 mph

Today
High -- | Low -- °F
--% Chance of Precip.
Yesterday
High -- | Low -- °F
Precip. -- in
Pressure 29.91 in
Visibility 10.0 miles
Clouds Few 5000 ft
Scattered Clouds 7000 ft
Windchill 48 °F
Dew Point 45 °F
Humidity 91%
Rainfall 0.00 in
Snow Depth Not available.
5:56 AM 8:49 PM
Waning Crescent, 8% visible
METAR KSUX 231052Z 29004KT 10SM FEW050 SCT070 07/06 A2991 RMK AO2 SLP128 T00720061
Pressure 29.91 in
Visibility 10.0 miles
Clouds Few 5000 ft
Scattered Clouds 7000 ft
Windchill 48 °F
Dew Point 45 °F
Humidity 91%
Rainfall 0.00 in
Snow Depth Not available.
5:56 AM 8:49 PM
Waning Crescent, 8% visible
METAR KSUX 231052Z 29004KT 10SM FEW050 SCT070 07/06 A2991 RMK AO2 SLP128 T00720061

Get Your Daily Forecast Email!

Thanks for signing up!

Be on the lookout for a verification email in your inbox.

You'll start receiving severe weather alerts in your inbox..

×

10-Day Weather Forecast

Almanac

Astronomy

May. 23, 2017 Rise Set
Actual Time
Civil Twilight
Nautical Twilight
Astronomical Twilight
Moon
Length of Visible Light
Length of Day
Tomorrow will be .
, % of the Moon is Illuminated

Today's Extremes

State Highs State Lows

Community

WunderPhotos

Category 6

Welcome to Category 6. This is the collective home for Weather Underground's featured writeups by Dr. Jeff Masters (right), Bob Henson (left), Chris Burt, and other regular contributors.

Nearby

Air Quality

  Air Quality AQ Index Pollutant
Not available.

Snow Depth

Station Depth Elevation

Earthquake Activity

City Distance Mag. Time & Date
Minimum magnitude displayed is 2.5.

Coastal Water Temperatures

Place Temperature

Stations

Nearby Weather Stations

Station Location Temp. Windchill Dew Point Humidity Wind Precip. Elev Updated Type
                   

Watches & Warnings

Flood Warning
Issued: 9:58 AM CDT May. 22, 2017 – National Weather Service

... Flood Warning extended until Wednesday may 24...
the Flood Warning continues for
the Big Sioux River above Hawarden.
* Until Wednesday evening.
* At 09am Monday the stage was 20.0 feet.
* Flood stage is 19.0 feet.
* Recent activity... the river rose above flood stage on Sunday may
21.
* Forecast... the river will crest near 20.4 feet Tuesday morning.
* At stages near 19.0 feet... agricultural flooding begins on the
South Dakota side of the river.


Lat... Lon 4331 9663 4331 9651 4314 9641 4303 9647
          4303 9654 4312 9654